createdAt,value
2022-10-11T12:00:04.430Z,60.60
2022-10-11T12:58:30.747Z,57.00
2022-10-11T13:01:19.097Z,64.20
2022-10-11T13:07:33.129Z,63.50
2022-10-11T13:13:35.901Z,72.00
2022-10-11T13:16:16.899Z,58.00
2022-10-11T13:19:24.519Z,56.60
2022-10-11T13:22:38.853Z,55.80
2022-10-11T13:26:03.769Z,62.60
2022-10-11T13:28:58.280Z,62.80
2022-10-11T13:31:48.775Z,63.00
2022-10-11T13:34:31.760Z,60.60
2022-10-11T13:38:04.687Z,62.20
2022-10-11T13:46:57.353Z,61.80
2022-10-11T13:50:13.313Z,55.00
2022-10-11T13:53:04.844Z,55.80
2022-10-11T13:56:40.179Z,58.80
2022-10-11T14:00:13.249Z,58.80
2022-10-11T14:03:07.877Z,54.80
2022-10-11T14:06:05.028Z,59.60
2022-10-11T14:09:09.129Z,56.40
2022-10-11T14:15:40.995Z,53.60
2022-10-11T14:18:42.253Z,50.60
2022-10-11T14:21:36.377Z,58.00
2022-10-11T14:25:15.882Z,56.40
2022-10-11T14:35:29.437Z,55.40
2022-10-11T14:38:16.592Z,68.60
2022-10-11T14:40:54.765Z,57.00
2022-10-11T14:53:20.891Z,54.00
2022-10-11T14:56:40.039Z,57.00
2022-10-11T15:05:34.323Z,54.00
2022-10-11T15:09:00.216Z,54.00
2022-10-11T15:11:47.741Z,55.60
2022-10-11T15:14:46.978Z,58.60
2022-10-11T15:17:31.603Z,51.80
2022-10-11T16:52:56.028Z,50.40
2022-10-11T16:56:10.200Z,48.00
2022-10-11T17:02:09.244Z,51.20
2022-10-11T17:05:29.674Z,48.60
2022-10-11T17:08:33.304Z,46.40
2022-10-11T17:11:25.644Z,48.20
2022-10-11T17:14:17.444Z,48.20
2022-10-11T17:19:51.603Z,49.40
2022-10-11T17:23:20.454Z,48.40
2022-10-11T18:06:12.354Z,47.60
2022-10-11T18:09:01.529Z,48.00
2022-10-11T18:11:34.693Z,46.80
2022-10-11T18:14:15.064Z,49.20
2022-10-11T18:17:13.164Z,45.80
2022-10-11T18:20:06.754Z,52.00
2022-10-11T19:14:52.631Z,52.40
2022-10-11T19:17:47.369Z,50.40
2022-10-11T19:20:58.764Z,45.40
2022-10-11T19:34:25.368Z,52.40
2022-10-11T19:52:02.536Z,51.80
2022-10-11T20:12:57.784Z,64.20
2022-10-11T20:30:15.621Z,73.40
2022-10-11T20:33:31.994Z,47.00
2022-10-11T20:36:23.200Z,48.00
2022-10-11T20:39:10.893Z,45.20
2022-10-11T20:42:06.697Z,47.80
2022-10-11T20:45:13.188Z,43.40
2022-10-11T20:47:52.827Z,47.20
2022-10-11T20:50:29.356Z,45.60
2022-10-11T20:53:29.956Z,62.20
2022-10-11T20:56:13.463Z,54.00
2022-10-11T20:58:47.180Z,44.20
2022-10-11T21:01:46.392Z,49.80
2022-10-11T21:04:20.022Z,48.20
2022-10-11T21:07:16.949Z,49.00
2022-10-11T21:09:57.626Z,45.40
2022-10-11T21:12:52.139Z,45.60
2022-10-11T21:15:30.693Z,46.40
2022-10-11T21:18:27.472Z,44.40
2022-10-11T21:21:53.698Z,45.20
2022-10-11T21:24:50.630Z,52.00
2022-10-11T21:27:55.245Z,45.20
2022-10-11T21:30:44.094Z,48.60
2022-10-11T21:33:29.835Z,47.20
2022-10-11T21:36:22.032Z,52.00
2022-10-11T21:39:41.635Z,43.00
2022-10-11T21:42:49.675Z,43.40
2022-10-11T21:48:52.788Z,50.00
2022-10-11T21:51:35.106Z,45.80
2022-10-11T21:54:43.295Z,46.00
2022-10-11T21:57:43.139Z,49.60
2022-10-11T22:00:52.518Z,44.80
2022-10-11T22:06:31.712Z,44.00
2022-10-11T22:08:58.735Z,46.80
2022-10-11T22:11:30.064Z,44.80
2022-10-11T22:13:58.697Z,45.80
2022-10-11T22:16:25.692Z,46.40
2022-10-11T22:18:55.796Z,43.00
2022-10-11T22:21:23.919Z,43.40
2022-10-11T22:23:52.953Z,45.00
2022-10-11T22:26:23.429Z,45.20
2022-10-11T22:28:53.581Z,43.40
2022-10-11T22:31:22.044Z,45.00
2022-10-11T22:33:53.237Z,43.00
2022-10-11T22:36:28.147Z,43.00
2022-10-11T22:38:55.150Z,48.40
2022-10-11T22:41:22.677Z,43.20
2022-10-11T22:43:51.395Z,40.00
2022-10-11T22:46:21.902Z,42.60
2022-10-11T22:48:48.989Z,43.00
2022-10-11T22:51:16.209Z,48.80
2022-10-11T22:53:43.192Z,48.00
2022-10-11T22:56:11.354Z,49.00
2022-10-11T22:58:38.312Z,46.20
2022-10-11T23:01:12.017Z,59.00
2022-10-11T23:03:42.012Z,46.00
2022-10-11T23:06:17.031Z,45.20
2022-10-11T23:08:44.654Z,41.60
2022-10-11T23:11:12.897Z,42.60
2022-10-11T23:13:40.272Z,48.60
2022-10-11T23:16:11.913Z,43.40
2022-10-11T23:18:44.694Z,41.80
2022-10-11T23:21:11.867Z,45.00
2022-10-11T23:23:40.050Z,45.60
2022-10-11T23:26:10.896Z,49.00
2022-10-11T23:28:37.980Z,44.00
2022-10-11T23:31:10.877Z,50.20
2022-10-11T23:33:38.603Z,42.20
2022-10-11T23:36:19.122Z,46.80
2022-10-11T23:38:54.926Z,47.20
2022-10-11T23:44:07.714Z,41.20
2022-10-11T23:46:34.629Z,47.40
2022-10-11T23:49:01.973Z,40.00
2022-10-11T23:51:28.954Z,65.40
2022-10-11T23:53:55.841Z,47.00
2022-10-11T23:56:25.841Z,47.60
2022-10-11T23:58:54.843Z,40.00
